모두
Horns Rev A Helideck heliport Airport (Horns Rev A Helideck, Denmark) EKHR 기상
There is no TAF data available at EKHR. Showing TAF data for EKEB (27 mi E).
EBJ 터미널 지역 예측(EKHR에 대한 데이터 없음)
| Date | Time (CEST) | Flight Rules | Wind Dir. | Speed | Type | Height AGL (ft) | Visibility | Remarks | ||||||
|---|---|---|---|---|---|---|---|---|---|---|---|---|---|---|
There is no METAR data available at EKHR. Showing METAR data for EKEB (27 mi E).
최근 EBJ METAR 이력(EKHR에 대한 데이터 없음)
| Date | Time (CEST) | Flight Rules | Wind Dir. | Speed | Type | Height AGL (ft) | Visibility | Temp (°C) | Temp (°F) | Dew Point (°C) | Dew Point (°F) | Rel. Humid. | Pressure | Density Altitude | Remarks |
|---|---|---|---|---|---|---|---|---|---|---|---|---|---|---|---|
| 05-5월 | 01:20 | VFR | 270° | 2 kt | 10000 meters | 4° | 39° | 3° | 37° | 93% | 1014 mb | -1,246 ft | |||
| 05-5월 | 00:50 | VFR | 260° | 2 kt | 10000 meters | 4° | 39° | 3° | 37° | 93% | 1014 mb | -1,246 ft | |||
| 05-5월 | 00:20 | VFR | 260° | 3 kt | 10000 meters | 4° | 39° | 3° | 37° | 93% | 1014 mb | -1,246 ft | |||
| 04-5월 | 23:50 | VFR | 250° | 2 kt | 10000 meters | 4° | 39° | 3° | 37° | 93% | 1014 mb | -1,246 ft | |||
| 04-5월 | 23:20 | VFR | 270° | 3 kt | 10000 meters | 5° | 41° | 4° | 39° | 93% | 1014 mb | -1,126 ft | |||
| 04-5월 | 22:50 | VFR | 250° | 4 kt | 10000 meters | 5° | 41° | 3° | 37° | 87% | 1014 mb | -1,126 ft | |||
| 04-5월 | 22:20 | VFR | 280° | 4 kt | 10000 meters | 6° | 42° | 4° | 39° | 87% | 1014 mb | -1,006 ft | |||
| 04-5월 | 21:50 | VFR | 290° | 5 kt | 10000 meters | 6° | 42° | 4° | 39° | 87% | 1014 mb | -1,006 ft | |||
| 04-5월 | 21:20 | VFR | 300° | 5 kt | 10000 meters | 6° | 42° | 4° | 39° | 87% | 1014 mb | -1,006 ft | |||
| 04-5월 | 20:50 | VFR | 310° | 8 kt | Scattered |
1,800 |
10000 meters | 7° | 44° | 4° | 39° | 81% | 1014 mb | -886 ft | |
| 04-5월 | 20:20 | MVFR | 310° | 9 kt | Broken |
1,900 |
10000 meters | 8° | 46° | 4° | 39° | 76% | 1013 mb | -737 ft | |
| 04-5월 | 19:50 | VFR | 290° | 9 kt | 10000 meters | 9° | 48° | 4° | 39° | 71% | 1014 mb | -646 ft | |||
| 04-5월 | 19:20 | VFR | 290° | 10 kt | 10000 meters | 9° | 48° | 5° | 41° | 76% | 1013 mb | -617 ft | |||
| 04-5월 | 18:50 | VFR | 290° | 8 kt | Few |
2,100 |
10000 meters | 9° | 48° | 4° | 39° | 71% | 1013 mb | -617 ft | |
| 04-5월 | 18:20 | VFR | 280° | 8 kt | 10000 meters | 10° | 50° | 4° | 39° | 66% | 1013 mb | -497 ft | |||
| 04-5월 | 17:50 | VFR | 290° | 9 kt | 10000 meters | 11° | 51° | 4° | 39° | 62% | 1013 mb | -377 ft | |||
| 04-5월 | 17:20 | VFR | 290° | 8 kt | 10000 meters | 11° | 51° | 4° | 39° | 62% | 1013 mb | -377 ft | |||
| 04-5월 | 16:50 | VFR | 280° | 9 kt | 10000 meters | 11° | 51° | 4° | 39° | 62% | 1013 mb | -377 ft | |||
| 04-5월 | 16:20 | VFR | 290° | 8 kt | 10000 meters | 11° | 51° | 4° | 39° | 62% | 1013 mb | -377 ft | |||
| 04-5월 | 15:50 | VFR | 300° | 10 kt | 10000 meters | 12° | 53° | 5° | 41° | 62% | 1013 mb | -257 ft | |||
| 04-5월 | 15:20 | VFR | 300° | 9 kt | 10000 meters | 12° | 53° | 6° | 42° | 67% | 1013 mb | -257 ft | |||
| 04-5월 | 14:50 | VFR | 290° | 9 kt | 10000 meters | 11° | 51° | 6° | 42° | 71% | 1013 mb | -377 ft | |||
| 04-5월 | 14:20 | VFR | 290° | 8 kt | 10000 meters | 11° | 51° | 5° | 41° | 66% | 1013 mb | -377 ft | |||
| 04-5월 | 13:50 | VFR | 280° | 10 kt | 10000 meters | 10° | 50° | 5° | 41° | 71% | 1013 mb | -497 ft |
로그인
| 귀하의 브라우저는 지원되지 않습니다.. 브라우저를 업그레이드하세요 |
